sensor_id;sensor_type;location;lat;lon;timestamp;temperature;humidity
43541;DHT22;29549;40.386;-3.710;2023-05-29T00:02:40;16.20;77.80
43541;DHT22;29549;40.386;-3.710;2023-05-29T00:12:44;16.20;77.90
43541;DHT22;29549;40.386;-3.710;2023-05-29T00:22:45;16.20;77.80
43541;DHT22;29549;40.386;-3.710;2023-05-29T00:32:45;16.20;78.20
43541;DHT22;29549;40.386;-3.710;2023-05-29T00:42:46;16.20;78.10
43541;DHT22;29549;40.386;-3.710;2023-05-29T00:52:47;16.20;77.90
43541;DHT22;29549;40.386;-3.710;2023-05-29T01:02:47;16.20;77.30
43541;DHT22;29549;40.386;-3.710;2023-05-29T01:32:52;16.30;76.80
43541;DHT22;29549;40.386;-3.710;2023-05-29T01:42:53;16.30;76.60
43541;DHT22;29549;40.386;-3.710;2023-05-29T01:52:56;16.20;76.50
43541;DHT22;29549;40.386;-3.710;2023-05-29T02:02:56;16.30;76.40
43541;DHT22;29549;40.386;-3.710;2023-05-29T02:12:57;16.20;76.80
43541;DHT22;29549;40.386;-3.710;2023-05-29T02:22:58;16.20;77.20
43541;DHT22;29549;40.386;-3.710;2023-05-29T02:32:58;16.10;77.70
43541;DHT22;29549;40.386;-3.710;2023-05-29T02:42:59;16.00;77.60
43541;DHT22;29549;40.386;-3.710;2023-05-29T02:52:59;16.10;78.00
43541;DHT22;29549;40.386;-3.710;2023-05-29T03:03:00;16.10;77.90
43541;DHT22;29549;40.386;-3.710;2023-05-29T03:13:01;16.00;77.80
43541;DHT22;29549;40.386;-3.710;2023-05-29T03:23:01;16.00;77.90
43541;DHT22;29549;40.386;-3.710;2023-05-29T03:33:02;16.10;77.60
43541;DHT22;29549;40.386;-3.710;2023-05-29T03:43:03;16.10;77.80
43541;DHT22;29549;40.386;-3.710;2023-05-29T03:53:04;16.00;78.20
43541;DHT22;29549;40.386;-3.710;2023-05-29T04:03:05;16.00;78.50
43541;DHT22;29549;40.386;-3.710;2023-05-29T04:13:06;16.00;78.50
43541;DHT22;29549;40.386;-3.710;2023-05-29T04:23:07;16.00;78.70
43541;DHT22;29549;40.386;-3.710;2023-05-29T04:33:08;16.00;79.00
43541;DHT22;29549;40.386;-3.710;2023-05-29T04:43:10;15.90;79.10
43541;DHT22;29549;40.386;-3.710;2023-05-29T04:53:10;15.90;79.50
43541;DHT22;29549;40.386;-3.710;2023-05-29T05:03:11;15.90;79.80
43541;DHT22;29549;40.386;-3.710;2023-05-29T05:13:16;15.90;80.00
43541;DHT22;29549;40.386;-3.710;2023-05-29T05:23:17;16.00;80.10
43541;DHT22;29549;40.386;-3.710;2023-05-29T05:33:18;16.00;80.00
43541;DHT22;29549;40.386;-3.710;2023-05-29T05:43:19;16.10;79.60
43541;DHT22;29549;40.386;-3.710;2023-05-29T05:53:21;16.10;79.50
43541;DHT22;29549;40.386;-3.710;2023-05-29T06:03:22;16.20;78.90
43541;DHT22;29549;40.386;-3.710;2023-05-29T06:13:22;16.40;78.00
43541;DHT22;29549;40.386;-3.710;2023-05-29T06:23:23;16.60;77.20
43541;DHT22;29549;40.386;-3.710;2023-05-29T06:33:23;16.80;76.20
43541;DHT22;29549;40.386;-3.710;2023-05-29T06:43:24;17.10;75.60
43541;DHT22;29549;40.386;-3.710;2023-05-29T06:53:26;17.10;75.40
43541;DHT22;29549;40.386;-3.710;2023-05-29T07:03:26;17.20;74.80
43541;DHT22;29549;40.386;-3.710;2023-05-29T07:13:27;17.70;73.70
43541;DHT22;29549;40.386;-3.710;2023-05-29T07:23:28;18.00;71.00
43541;DHT22;29549;40.386;-3.710;2023-05-29T07:33:28;18.10;70.10
43541;DHT22;29549;40.386;-3.710;2023-05-29T07:43:29;18.20;69.70
43541;DHT22;29549;40.386;-3.710;2023-05-29T07:53:30;18.20;69.70
43541;DHT22;29549;40.386;-3.710;2023-05-29T08:03:31;18.20;69.80
43541;DHT22;29549;40.386;-3.710;2023-05-29T08:13:32;18.90;68.60
43541;DHT22;29549;40.386;-3.710;2023-05-29T08:23:33;19.50;65.10
43541;DHT22;29549;40.386;-3.710;2023-05-29T08:33:33;19.80;62.90
43541;DHT22;29549;40.386;-3.710;2023-05-29T08:43:34;19.70;63.60
43541;DHT22;29549;40.386;-3.710;2023-05-29T08:53:35;20.30;60.60
43541;DHT22;29549;40.386;-3.710;2023-05-29T09:03:35;20.30;60.80
43541;DHT22;29549;40.386;-3.710;2023-05-29T09:13:38;20.40;59.40
43541;DHT22;29549;40.386;-3.710;2023-05-29T09:23:39;20.50;56.90
43541;DHT22;29549;40.386;-3.710;2023-05-29T09:33:46;20.20;58.40
43541;DHT22;29549;40.386;-3.710;2023-05-29T09:43:48;20.30;58.90
43541;DHT22;29549;40.386;-3.710;2023-05-29T09:53:48;20.40;57.90
43541;DHT22;29549;40.386;-3.710;2023-05-29T10:03:51;20.80;56.20
43541;DHT22;29549;40.386;-3.710;2023-05-29T10:13:52;21.10;54.80
43541;DHT22;29549;40.386;-3.710;2023-05-29T10:23:52;21.20;53.00
43541;DHT22;29549;40.386;-3.710;2023-05-29T10:34:17;21.30;52.00
43541;DHT22;29549;40.386;-3.710;2023-05-29T10:54:39;21.70;48.70
43541;DHT22;29549;40.386;-3.710;2023-05-29T11:04:40;21.80;49.10
43541;DHT22;29549;40.386;-3.710;2023-05-29T11:14:45;21.60;49.00
43541;DHT22;29549;40.386;-3.710;2023-05-29T11:24:46;21.80;48.30
43541;DHT22;29549;40.386;-3.710;2023-05-29T11:34:47;22.10;48.00
43541;DHT22;29549;40.386;-3.710;2023-05-29T11:44:48;22.10;47.80
43541;DHT22;29549;40.386;-3.710;2023-05-29T11:54:49;21.80;48.30
43541;DHT22;29549;40.386;-3.710;2023-05-29T12:05:02;21.90;48.20
43541;DHT22;29549;40.386;-3.710;2023-05-29T12:15:05;22.10;46.60
43541;DHT22;29549;40.386;-3.710;2023-05-29T12:25:07;22.60;46.30
43541;DHT22;29549;40.386;-3.710;2023-05-29T12:45:18;22.90;45.00
43541;DHT22;29549;40.386;-3.710;2023-05-29T12:55:19;22.90;44.90
43541;DHT22;29549;40.386;-3.710;2023-05-29T13:05:19;22.70;45.00
43541;DHT22;29549;40.386;-3.710;2023-05-29T13:15:23;23.00;44.30
43541;DHT22;29549;40.386;-3.710;2023-05-29T13:25:23;23.20;44.30
43541;DHT22;29549;40.386;-3.710;2023-05-29T13:35:26;23.60;43.20
43541;DHT22;29549;40.386;-3.710;2023-05-29T13:45:26;23.50;42.40
43541;DHT22;29549;40.386;-3.710;2023-05-29T13:55:28;23.70;42.40
43541;DHT22;29549;40.386;-3.710;2023-05-29T14:05:28;23.90;42.20
43541;DHT22;29549;40.386;-3.710;2023-05-29T14:15:29;23.70;42.00
43541;DHT22;29549;40.386;-3.710;2023-05-29T14:25:30;23.90;42.10
43541;DHT22;29549;40.386;-3.710;2023-05-29T14:35:30;23.80;41.40
43541;DHT22;29549;40.386;-3.710;2023-05-29T14:45:31;23.70;41.60
43541;DHT22;29549;40.386;-3.710;2023-05-29T14:55:32;23.70;41.90
43541;DHT22;29549;40.386;-3.710;2023-05-29T15:05:37;23.70;41.50
43541;DHT22;29549;40.386;-3.710;2023-05-29T15:15:38;23.70;48.40
43541;DHT22;29549;40.386;-3.710;2023-05-29T15:25:39;23.30;50.60
43541;DHT22;29549;40.386;-3.710;2023-05-29T15:35:39;23.40;51.10
43541;DHT22;29549;40.386;-3.710;2023-05-29T15:45:41;23.70;49.50
43541;DHT22;29549;40.386;-3.710;2023-05-29T15:55:44;23.90;49.20
43541;DHT22;29549;40.386;-3.710;2023-05-29T16:05:44;24.00;49.40
43541;DHT22;29549;40.386;-3.710;2023-05-29T16:15:45;23.90;49.50
43541;DHT22;29549;40.386;-3.710;2023-05-29T16:25:48;23.70;49.80
43541;DHT22;29549;40.386;-3.710;2023-05-29T16:35:48;23.00;45.30
43541;DHT22;29549;40.386;-3.710;2023-05-29T16:45:49;21.90;49.80
43541;DHT22;29549;40.386;-3.710;2023-05-29T16:55:50;20.70;62.70
43541;DHT22;29549;40.386;-3.710;2023-05-29T17:05:51;19.70;65.60
43541;DHT22;29549;40.386;-3.710;2023-05-29T17:15:52;19.20;66.70
43541;DHT22;29549;40.386;-3.710;2023-05-29T17:26:02;19.10;68.30
43541;DHT22;29549;40.386;-3.710;2023-05-29T17:36:03;18.90;68.00
43541;DHT22;29549;40.386;-3.710;2023-05-29T17:46:04;19.00;67.50
43541;DHT22;29549;40.386;-3.710;2023-05-29T17:56:04;18.80;68.60
43541;DHT22;29549;40.386;-3.710;2023-05-29T18:06:05;18.70;69.70
43541;DHT22;29549;40.386;-3.710;2023-05-29T18:16:06;18.40;69.80
43541;DHT22;29549;40.386;-3.710;2023-05-29T18:26:09;18.30;70.60
43541;DHT22;29549;40.386;-3.710;2023-05-29T18:36:09;18.20;70.80
43541;DHT22;29549;40.386;-3.710;2023-05-29T18:46:12;18.10;73.20
43541;DHT22;29549;40.386;-3.710;2023-05-29T18:56:12;18.20;73.70
43541;DHT22;29549;40.386;-3.710;2023-05-29T19:06:13;18.00;72.90
43541;DHT22;29549;40.386;-3.710;2023-05-29T19:16:14;17.90;73.00
43541;DHT22;29549;40.386;-3.710;2023-05-29T19:26:14;17.90;72.30
43541;DHT22;29549;40.386;-3.710;2023-05-29T19:36:15;17.80;72.90
43541;DHT22;29549;40.386;-3.710;2023-05-29T19:46:16;17.80;72.20
43541;DHT22;29549;40.386;-3.710;2023-05-29T19:56:16;17.80;72.60
43541;DHT22;29549;40.386;-3.710;2023-05-29T20:06:17;17.60;74.80
43541;DHT22;29549;40.386;-3.710;2023-05-29T20:16:17;17.50;73.80
43541;DHT22;29549;40.386;-3.710;2023-05-29T20:26:18;17.60;72.90
43541;DHT22;29549;40.386;-3.710;2023-05-29T20:36:19;17.60;74.10
43541;DHT22;29549;40.386;-3.710;2023-05-29T20:46:20;17.70;74.00
43541;DHT22;29549;40.386;-3.710;2023-05-29T20:56:22;17.70;73.30
43541;DHT22;29549;40.386;-3.710;2023-05-29T21:06:23;17.70;73.80
43541;DHT22;29549;40.386;-3.710;2023-05-29T21:16:23;17.70;74.40
43541;DHT22;29549;40.386;-3.710;2023-05-29T21:26:24;17.60;74.60
43541;DHT22;29549;40.386;-3.710;2023-05-29T21:36:26;17.60;74.50
43541;DHT22;29549;40.386;-3.710;2023-05-29T21:46:26;17.50;74.80
43541;DHT22;29549;40.386;-3.710;2023-05-29T21:56:27;17.50;74.90
43541;DHT22;29549;40.386;-3.710;2023-05-29T22:06:29;17.50;75.20
43541;DHT22;29549;40.386;-3.710;2023-05-29T22:16:31;17.60;75.10
43541;DHT22;29549;40.386;-3.710;2023-05-29T22:26:32;17.50;75.60
43541;DHT22;29549;40.386;-3.710;2023-05-29T22:36:33;17.50;75.20
43541;DHT22;29549;40.386;-3.710;2023-05-29T22:46:34;17.50;74.80
43541;DHT22;29549;40.386;-3.710;2023-05-29T22:56:37;17.40;73.60
43541;DHT22;29549;40.386;-3.710;2023-05-29T23:06:39;17.40;73.20
43541;DHT22;29549;40.386;-3.710;2023-05-29T23:16:39;17.40;73.30
43541;DHT22;29549;40.386;-3.710;2023-05-29T23:26:40;17.30;72.70
43541;DHT22;29549;40.386;-3.710;2023-05-29T23:36:42;17.20;72.60
43541;DHT22;29549;40.386;-3.710;2023-05-29T23:46:42;17.20;72.60
43541;DHT22;29549;40.386;-3.710;2023-05-29T23:56:43;17.00;76.00
